createdAt,value
2023-09-25T00:02:11.216Z,7.07
2023-09-25T00:04:39.081Z,7.18
2023-09-25T00:07:06.953Z,8.02
2023-09-25T00:09:34.814Z,8.43
2023-09-25T00:12:02.739Z,7.50
2023-09-25T00:14:32.541Z,7.43
2023-09-25T00:17:00.500Z,7.85
2023-09-25T00:19:28.369Z,6.60
2023-09-25T00:21:56.213Z,6.55
2023-09-25T00:24:24.386Z,6.88
2023-09-25T00:26:52.256Z,6.53
2023-09-25T00:29:20.037Z,6.93
2023-09-25T00:31:49.248Z,6.95
2023-09-25T00:34:17.078Z,9.75
2023-09-25T00:36:45.328Z,6.97
2023-09-25T00:39:13.660Z,7.90
2023-09-25T00:41:41.490Z,7.72
2023-09-25T00:44:09.271Z,6.97
2023-09-25T00:46:37.523Z,8.60
2023-09-25T00:49:06.771Z,8.48
2023-09-25T00:51:34.840Z,8.65
2023-09-25T00:54:03.040Z,7.60
2023-09-25T00:56:31.112Z,8.15
2023-09-25T00:58:58.928Z,10.32
2023-09-25T01:01:26.677Z,10.82
2023-09-25T01:03:54.477Z,9.35
2023-09-25T01:06:24.606Z,8.13
2023-09-25T01:08:52.429Z,9.15
2023-09-25T01:11:20.205Z,8.05
2023-09-25T01:13:48.077Z,9.25
2023-09-25T01:16:16.380Z,9.48
2023-09-25T01:18:44.433Z,8.80
2023-09-25T01:21:12.824Z,9.23
2023-09-25T01:23:41.930Z,9.60
2023-09-25T01:26:09.643Z,9.45
2023-09-25T01:28:37.977Z,10.23
2023-09-25T01:31:08.336Z,10.70
2023-09-25T01:33:36.748Z,9.40
2023-09-25T01:36:04.738Z,10.32
2023-09-25T01:38:32.483Z,8.95
2023-09-25T01:41:02.007Z,9.50
2023-09-25T01:43:29.797Z,8.88
2023-09-25T01:45:57.544Z,9.68
2023-09-25T01:48:26.544Z,8.65
2023-09-25T01:50:54.750Z,8.82
2023-09-25T01:53:23.540Z,13.85
2023-09-25T01:55:51.324Z,9.90
2023-09-25T01:58:20.373Z,11.27
2023-09-25T02:00:48.138Z,10.23
2023-09-25T02:03:15.987Z,10.55
2023-09-25T02:05:45.904Z,11.32
2023-09-25T02:08:13.719Z,15.02
2023-09-25T02:10:41.883Z,9.77
2023-09-25T02:13:10.384Z,11.82
2023-09-25T02:15:39.554Z,10.45
2023-09-25T02:18:09.903Z,7.38
2023-09-25T02:20:37.864Z,9.13
2023-09-25T02:23:06.588Z,11.65
2023-09-25T02:25:34.444Z,10.63
2023-09-25T02:28:02.183Z,13.82
2023-09-25T02:30:30.146Z,13.02
2023-09-25T02:33:00.914Z,9.07
2023-09-25T02:35:28.863Z,11.70
2023-09-25T02:37:56.769Z,9.30
2023-09-25T02:40:25.202Z,15.05
2023-09-25T02:42:52.961Z,10.05
2023-09-25T02:45:20.871Z,13.80
2023-09-25T02:47:48.751Z,10.07
2023-09-25T02:50:17.962Z,11.82
2023-09-25T02:52:46.025Z,11.70
2023-09-25T02:55:14.512Z,16.77
2023-09-25T02:57:42.640Z,11.77
2023-09-25T03:00:11.999Z,15.85
2023-09-25T03:02:40.315Z,11.77
2023-09-25T03:05:08.374Z,12.57
2023-09-25T03:07:38.254Z,11.20
2023-09-25T03:10:07.246Z,11.35
2023-09-25T03:12:35.102Z,12.68
2023-09-25T03:15:04.100Z,12.60
2023-09-25T03:17:33.011Z,12.73
2023-09-25T03:20:00.895Z,10.95
2023-09-25T03:22:28.692Z,13.60
2023-09-25T03:24:58.896Z,11.18
2023-09-25T03:27:26.765Z,13.77
2023-09-25T03:29:55.017Z,11.25
2023-09-25T03:32:22.830Z,10.68
2023-09-25T03:34:50.663Z,14.77
2023-09-25T03:37:21.571Z,12.85
2023-09-25T03:39:50.189Z,16.63
2023-09-25T03:42:19.304Z,13.68
2023-09-25T03:44:47.102Z,14.45
2023-09-25T03:47:15.065Z,13.15
2023-09-25T03:49:45.096Z,10.50
2023-09-25T03:52:12.952Z,12.02
2023-09-25T03:54:40.742Z,19.85
2023-09-25T03:57:08.588Z,14.20
2023-09-25T03:59:37.689Z,16.00
2023-09-25T04:02:06.406Z,12.57
2023-09-25T04:04:34.351Z,16.70
2023-09-25T04:07:02.477Z,14.95
2023-09-25T04:09:30.389Z,13.30
2023-09-25T04:11:58.592Z,17.02
2023-09-25T04:14:29.080Z,13.65
2023-09-25T04:16:58.223Z,16.50
2023-09-25T04:19:26.151Z,14.23
2023-09-25T04:21:53.999Z,15.80
2023-09-25T04:24:21.765Z,15.73
2023-09-25T04:26:49.503Z,16.95
2023-09-25T04:29:19.209Z,15.95
2023-09-25T04:31:47.477Z,15.30
2023-09-25T04:34:16.805Z,16.85
2023-09-25T04:36:47.284Z,15.63
2023-09-25T04:39:17.812Z,14.90
2023-09-25T04:41:46.370Z,14.00
2023-09-25T04:44:14.372Z,13.93
2023-09-25T04:46:42.318Z,18.60
2023-09-25T04:49:10.192Z,17.65
2023-09-25T04:51:40.101Z,18.50
2023-09-25T04:54:07.947Z,15.52
2023-09-25T04:56:35.747Z,20.88
2023-09-25T04:59:03.551Z,17.00
2023-09-25T05:01:31.597Z,22.02
2023-09-25T05:03:59.479Z,17.35
2023-09-25T05:06:27.492Z,19.98
2023-09-25T05:08:56.782Z,16.05
2023-09-25T05:11:24.585Z,16.83
2023-09-25T05:13:52.503Z,21.40
2023-09-25T05:16:20.425Z,19.35
2023-09-25T05:18:48.752Z,18.05
2023-09-25T05:21:16.629Z,23.13
2023-09-25T05:23:46.087Z,20.63
2023-09-25T05:26:15.312Z,18.33
2023-09-25T05:28:43.066Z,59.05
2023-09-25T05:31:11.192Z,28.40
2023-09-25T05:33:39.040Z,18.40
2023-09-25T05:36:07.750Z,17.92
2023-09-25T05:38:35.573Z,20.92
2023-09-25T05:41:03.389Z,21.75
2023-09-25T05:43:32.879Z,22.15
2023-09-25T05:46:01.056Z,20.27
2023-09-25T05:48:29.660Z,18.25
2023-09-25T05:50:57.450Z,16.58
2023-09-25T05:53:26.857Z,18.85
2023-09-25T05:55:54.694Z,16.13
2023-09-25T05:58:22.439Z,18.55
2023-09-25T06:00:51.718Z,16.13
2023-09-25T06:03:19.757Z,18.23
2023-09-25T06:05:47.571Z,18.05
2023-09-25T06:08:15.291Z,15.45
2023-09-25T06:10:43.093Z,14.73
2023-09-25T06:13:11.033Z,17.60
2023-09-25T06:15:38.946Z,16.20
2023-09-25T06:18:10.439Z,12.90
2023-09-25T06:20:39.811Z,18.42
2023-09-25T06:23:07.845Z,14.27
2023-09-25T06:25:36.270Z,13.93
2023-09-25T06:28:04.628Z,14.18
2023-09-25T06:30:32.587Z,13.65
2023-09-25T06:33:03.102Z,13.50
2023-09-25T06:35:32.494Z,12.23
2023-09-25T06:38:00.282Z,12.25
2023-09-25T06:40:28.281Z,13.65
2023-09-25T06:42:56.613Z,13.55
2023-09-25T06:45:24.531Z,14.20
2023-09-25T06:47:52.488Z,11.48
2023-09-25T06:50:20.783Z,15.50
2023-09-25T06:52:49.918Z,10.82
2023-09-25T06:55:17.791Z,13.82
2023-09-25T06:57:46.129Z,14.43
2023-09-25T07:00:15.423Z,11.68
2023-09-25T07:02:43.515Z,11.93
2023-09-25T07:05:13.780Z,14.32
2023-09-25T07:07:41.797Z,11.88
2023-09-25T07:10:12.116Z,21.52
2023-09-25T07:12:40.295Z,14.48
2023-09-25T07:15:08.697Z,13.32
2023-09-25T07:17:36.599Z,14.65
2023-09-25T07:20:06.649Z,10.13
2023-09-25T07:22:35.070Z,12.63
2023-09-25T07:25:03.311Z,11.95
2023-09-25T07:27:32.876Z,11.95
2023-09-25T07:30:02.637Z,12.45
2023-09-25T07:32:30.781Z,10.77
2023-09-25T07:34:59.458Z,11.35
2023-09-25T07:37:27.369Z,12.68
2023-09-25T07:39:55.572Z,11.85
2023-09-25T07:42:23.373Z,8.20
2023-09-25T07:44:52.873Z,11.52
2023-09-25T07:47:20.879Z,11.07
2023-09-25T07:49:48.757Z,12.35
2023-09-25T07:52:21.440Z,12.02
2023-09-25T07:54:50.734Z,10.52
2023-09-25T07:57:20.403Z,10.32
2023-09-25T07:59:48.533Z,12.02
2023-09-25T08:02:19.451Z,8.85
2023-09-25T08:04:48.741Z,10.02
2023-09-25T08:07:16.677Z,8.57
2023-09-25T08:09:44.610Z,9.02
2023-09-25T08:12:12.439Z,11.85
2023-09-25T08:14:40.537Z,8.45
2023-09-25T08:17:09.800Z,8.90
2023-09-25T08:19:40.070Z,7.88
2023-09-25T08:22:08.962Z,8.95
2023-09-25T08:24:36.914Z,6.63
2023-09-25T08:27:05.896Z,8.10
2023-09-25T08:29:33.777Z,8.20
2023-09-25T08:32:02.235Z,8.20
2023-09-25T08:34:30.086Z,9.25
2023-09-25T08:36:59.307Z,9.95
2023-09-25T08:39:27.196Z,8.55
2023-09-25T08:41:55.219Z,7.78
2023-09-25T08:44:23.300Z,7.30
2023-09-25T08:46:51.733Z,7.53
2023-09-25T08:49:20.040Z,7.63
2023-09-25T08:51:48.267Z,6.97
2023-09-25T08:54:19.160Z,6.63
2023-09-25T08:56:48.658Z,5.15
2023-09-25T08:59:17.270Z,6.35
2023-09-25T09:01:46.535Z,7.53
2023-09-25T09:04:15.826Z,5.53
2023-09-25T09:06:43.840Z,6.00
2023-09-25T09:09:14.467Z,8.32
2023-09-25T09:11:51.987Z,5.40
2023-09-25T09:14:33.321Z,6.80
2023-09-25T09:17:01.103Z,6.18
2023-09-25T09:19:28.977Z,6.90
2023-09-25T09:22:03.852Z,4.72
2023-09-25T09:24:33.362Z,6.03
2023-09-25T09:27:03.323Z,4.97
2023-09-25T09:29:35.983Z,5.60
2023-09-25T09:32:03.916Z,8.07
2023-09-25T09:34:32.536Z,6.75
2023-09-25T09:37:00.604Z,10.10
2023-09-25T09:39:35.742Z,6.15
2023-09-25T09:42:06.806Z,6.28
2023-09-25T09:44:34.881Z,7.30
2023-09-25T09:47:04.010Z,7.38
2023-09-25T09:49:32.869Z,5.50
2023-09-25T09:52:02.369Z,6.78
2023-09-25T09:54:32.739Z,6.93
2023-09-25T09:57:01.540Z,6.78
2023-09-25T09:59:30.814Z,6.95
2023-09-25T10:01:59.842Z,6.20
2023-09-25T10:04:27.984Z,5.45
2023-09-25T10:07:00.778Z,5.00
2023-09-25T10:09:28.902Z,5.75
2023-09-25T10:11:59.558Z,6.03
2023-09-25T10:14:30.703Z,5.22
2023-09-25T10:17:04.914Z,6.07
2023-09-25T10:19:46.867Z,5.50
2023-09-25T10:22:18.039Z,6.70
2023-09-25T10:24:47.606Z,7.13
2023-09-25T10:27:16.350Z,6.18
2023-09-25T10:29:59.228Z,7.60
2023-09-25T10:32:32.850Z,6.50
2023-09-25T10:35:15.564Z,7.35
2023-09-25T10:37:59.269Z,5.95
2023-09-25T10:40:27.171Z,6.13
2023-09-25T10:42:54.957Z,5.60
2023-09-25T10:45:23.428Z,7.45
2023-09-25T10:47:52.686Z,7.45
2023-09-25T10:50:20.671Z,4.88
2023-09-25T10:52:48.427Z,4.55
2023-09-25T10:55:16.708Z,6.97
2023-09-25T10:57:44.934Z,5.93
2023-09-25T11:00:16.079Z,6.05
2023-09-25T11:02:44.491Z,5.05
2023-09-25T11:05:15.092Z,5.22
2023-09-25T11:07:42.908Z,7.38
2023-09-25T11:10:11.776Z,4.32
2023-09-25T11:12:39.662Z,4.97
2023-09-25T11:15:11.307Z,4.65
2023-09-25T11:17:39.320Z,3.90
2023-09-25T11:20:12.388Z,3.15
2023-09-25T11:22:42.212Z,4.03
2023-09-25T11:25:12.218Z,5.47
2023-09-25T11:27:40.180Z,4.20
2023-09-25T11:30:09.247Z,5.28
2023-09-25T11:32:37.180Z,4.18
2023-09-25T11:35:05.289Z,6.00
2023-09-25T11:37:33.409Z,3.33
2023-09-25T11:40:02.783Z,6.03
2023-09-25T11:42:30.940Z,3.92
2023-09-25T11:44:59.095Z,3.53
2023-09-25T11:47:26.900Z,3.80
2023-09-25T11:49:54.640Z,4.00
2023-09-25T11:52:22.423Z,3.55
2023-09-25T11:54:50.234Z,3.88
2023-09-25T11:57:19.450Z,7.25
2023-09-25T11:59:47.337Z,3.50
2023-09-25T12:02:15.258Z,3.00
2023-09-25T12:04:43.991Z,4.38
2023-09-25T12:07:11.981Z,3.58
2023-09-25T12:09:39.793Z,2.63
2023-09-25T12:12:07.846Z,4.13
2023-09-25T12:14:36.962Z,2.95
2023-09-25T12:17:10.964Z,3.22
2023-09-25T12:19:40.148Z,3.20
2023-09-25T12:22:08.031Z,4.22
2023-09-25T12:24:36.042Z,3.03
2023-09-25T12:27:05.670Z,5.30
2023-09-25T12:29:34.118Z,5.13
2023-09-25T12:32:03.830Z,3.58
2023-09-25T12:34:31.725Z,5.10
2023-09-25T12:36:59.676Z,3.53
2023-09-25T12:39:27.641Z,3.28
2023-09-25T12:41:59.422Z,3.75
2023-09-25T12:44:34.250Z,6.70
2023-09-25T12:47:03.617Z,5.00
2023-09-25T12:49:31.581Z,5.78
2023-09-25T12:51:59.536Z,3.88
2023-09-25T12:54:27.339Z,7.20
2023-09-25T12:56:55.153Z,4.00
2023-09-25T12:59:22.938Z,4.95
2023-09-25T13:01:52.778Z,3.20
2023-09-25T13:04:22.439Z,3.58
2023-09-25T13:06:51.650Z,4.85
2023-09-25T13:09:21.304Z,3.28
2023-09-25T13:11:50.194Z,3.75
2023-09-25T13:14:18.158Z,5.20
2023-09-25T13:16:46.554Z,4.68
2023-09-25T13:19:14.704Z,5.63
2023-09-25T13:21:43.829Z,5.78
2023-09-25T13:24:11.768Z,3.97
2023-09-25T13:26:39.641Z,6.07
2023-09-25T13:29:08.567Z,4.97
2023-09-25T13:31:36.821Z,4.25
2023-09-25T13:34:04.756Z,4.72
2023-09-25T13:36:33.287Z,4.53
2023-09-25T13:39:02.564Z,3.40
2023-09-25T13:41:30.328Z,3.55
2023-09-25T13:44:00.183Z,9.50
2023-09-25T13:46:28.161Z,4.18
2023-09-25T13:48:56.106Z,3.75
2023-09-25T13:51:24.143Z,4.40
2023-09-25T13:53:53.228Z,5.47
2023-09-25T13:56:23.192Z,5.88
2023-09-25T13:58:53.150Z,5.78
2023-09-25T14:01:21.017Z,3.63
2023-09-25T14:03:49.189Z,4.75
2023-09-25T14:06:17.209Z,2.08
2023-09-25T14:08:44.995Z,4.93
2023-09-25T14:11:14.292Z,4.68
2023-09-25T14:13:43.533Z,6.53
2023-09-25T14:16:12.195Z,3.97
2023-09-25T14:18:40.853Z,4.30
2023-09-25T14:21:14.630Z,5.07
2023-09-25T14:23:43.464Z,3.75
2023-09-25T14:26:11.486Z,5.57
2023-09-25T14:28:39.247Z,5.55
2023-09-25T14:31:08.483Z,7.50
2023-09-25T14:33:40.529Z,4.90
2023-09-25T14:36:08.745Z,3.88
2023-09-25T14:38:36.507Z,5.78
2023-09-25T14:41:06.727Z,2.85
2023-09-25T14:43:35.294Z,4.07
2023-09-25T14:46:04.060Z,4.20
2023-09-25T14:48:34.642Z,4.15
2023-09-25T14:51:02.619Z,4.10
2023-09-25T14:53:30.442Z,6.32
2023-09-25T14:55:58.280Z,4.03
2023-09-25T14:58:26.851Z,6.47
2023-09-25T15:00:58.518Z,5.18
2023-09-25T15:03:26.837Z,3.30
2023-09-25T15:05:56.257Z,6.28
2023-09-25T15:08:25.305Z,4.88
2023-09-25T15:10:53.901Z,4.57
2023-09-25T15:13:21.745Z,3.65
2023-09-25T15:15:50.085Z,4.53
2023-09-25T15:18:17.841Z,4.50
2023-09-25T15:20:45.717Z,4.30
2023-09-25T15:23:14.823Z,5.65
2023-09-25T15:25:43.512Z,4.72
2023-09-25T15:28:11.435Z,6.07
2023-09-25T15:30:39.275Z,4.80
2023-09-25T15:33:07.135Z,5.78
2023-09-25T15:35:35.033Z,4.07
2023-09-25T15:38:02.894Z,4.95
2023-09-25T15:40:32.090Z,5.28
2023-09-25T15:42:59.847Z,6.45
2023-09-25T15:45:27.822Z,7.80
2023-09-25T15:47:57.505Z,4.75
2023-09-25T15:50:30.428Z,5.43
2023-09-25T15:52:58.130Z,6.15
2023-09-25T15:55:25.854Z,5.72
2023-09-25T15:57:55.032Z,4.85
2023-09-25T16:00:24.482Z,5.68
2023-09-25T16:02:53.824Z,5.63
2023-09-25T16:05:21.920Z,6.65
2023-09-25T16:07:49.682Z,6.32
2023-09-25T16:10:17.536Z,4.40
2023-09-25T16:12:45.389Z,5.32
2023-09-25T16:15:14.812Z,6.05
2023-09-25T16:17:42.938Z,5.10
2023-09-25T16:20:10.915Z,6.25
2023-09-25T16:22:38.982Z,7.05
2023-09-25T16:25:07.162Z,7.97
2023-09-25T16:27:35.507Z,6.18
2023-09-25T16:30:03.660Z,6.85
2023-09-25T16:32:33.502Z,5.72
2023-09-25T16:35:01.537Z,7.18
2023-09-25T16:37:29.325Z,3.53
2023-09-25T16:39:57.265Z,6.63
2023-09-25T16:42:25.279Z,6.15
2023-09-25T16:44:53.141Z,5.95
2023-09-25T16:47:23.012Z,6.22
2023-09-25T16:49:52.613Z,6.38
2023-09-25T16:52:20.662Z,7.25
2023-09-25T16:54:48.956Z,9.40
2023-09-25T16:57:16.738Z,5.80
2023-09-25T16:59:48.723Z,8.20
2023-09-25T17:02:16.684Z,5.15
2023-09-25T17:04:44.543Z,8.55
2023-09-25T17:07:17.048Z,7.55
2023-09-25T17:09:45.152Z,8.50
2023-09-25T17:12:13.445Z,9.85
2023-09-25T17:14:41.695Z,7.68
2023-09-25T17:17:10.167Z,6.90
2023-09-25T17:19:38.456Z,8.35
2023-09-25T17:22:06.237Z,10.55
2023-09-25T17:24:35.944Z,20.83
2023-09-25T17:27:03.728Z,10.38
2023-09-25T17:29:33.002Z,9.45
2023-09-25T17:32:01.087Z,12.43
2023-09-25T17:34:29.445Z,11.32
2023-09-25T17:36:59.978Z,10.43
2023-09-25T17:39:28.011Z,9.82
2023-09-25T17:41:57.156Z,8.80
2023-09-25T17:44:25.347Z,8.77
2023-09-25T17:46:53.254Z,11.15
2023-09-25T17:49:21.349Z,16.17
2023-09-25T17:51:50.194Z,12.95
2023-09-25T17:54:18.082Z,14.95
2023-09-25T17:56:46.004Z,14.68
2023-09-25T17:59:15.286Z,13.23
2023-09-25T18:01:43.076Z,11.23
2023-09-25T18:04:11.025Z,15.07
2023-09-25T18:06:38.917Z,12.52
2023-09-25T18:09:06.859Z,14.65
2023-09-25T18:11:35.205Z,13.75
2023-09-25T18:14:06.052Z,14.27
2023-09-25T18:16:35.951Z,11.98
2023-09-25T18:19:05.001Z,13.02
2023-09-25T18:21:33.911Z,9.73
2023-09-25T18:24:03.213Z,13.15
2023-09-25T18:26:31.750Z,11.65
2023-09-25T18:28:59.816Z,12.15
2023-09-25T18:31:28.815Z,13.15
2023-09-25T18:33:58.165Z,9.38
2023-09-25T18:36:26.035Z,10.20
2023-09-25T18:38:54.801Z,12.35
2023-09-25T18:41:22.805Z,10.52
2023-09-25T18:43:50.909Z,10.70
2023-09-25T18:46:19.105Z,12.25
2023-09-25T18:48:47.108Z,17.13
2023-09-25T18:51:21.710Z,11.07
2023-09-25T18:53:49.772Z,12.05
2023-09-25T18:56:19.769Z,14.02
2023-09-25T18:58:47.681Z,10.60
2023-09-25T19:01:15.575Z,12.05
2023-09-25T19:03:43.800Z,12.05
2023-09-25T19:06:11.673Z,11.15
2023-09-25T19:08:41.169Z,12.98
2023-09-25T19:11:09.295Z,12.68
2023-09-25T19:13:43.266Z,13.20
2023-09-25T19:16:11.648Z,13.93
2023-09-25T19:18:42.141Z,13.05
2023-09-25T19:21:11.605Z,12.90
2023-09-25T19:23:41.334Z,11.88
2023-09-25T19:26:09.272Z,14.45
2023-09-25T19:28:37.496Z,15.10
2023-09-25T19:31:10.722Z,65.30
2023-09-25T19:33:57.364Z,14.68
2023-09-25T19:36:26.594Z,13.45
2023-09-25T19:38:55.875Z,20.95
2023-09-25T19:41:23.749Z,14.82
2023-09-25T19:43:53.111Z,16.50
2023-09-25T19:46:21.482Z,12.05
2023-09-25T19:48:49.398Z,14.77
2023-09-25T19:51:17.301Z,14.68
2023-09-25T19:53:45.577Z,16.10
2023-09-25T19:56:14.830Z,16.73
2023-09-25T19:58:42.582Z,16.92
2023-09-25T20:01:11.606Z,63.47
2023-09-25T20:03:39.986Z,24.95
2023-09-25T20:06:08.104Z,16.48
2023-09-25T20:08:36.465Z,14.40
2023-09-25T20:11:04.859Z,17.75
2023-09-25T20:13:34.070Z,16.67
2023-09-25T20:16:02.024Z,18.48
2023-09-25T20:18:29.881Z,16.75
2023-09-25T20:20:58.069Z,16.55
2023-09-25T20:23:27.406Z,19.00
2023-09-25T20:25:55.454Z,21.75
2023-09-25T20:28:23.280Z,15.35
2023-09-25T20:30:52.575Z,18.40
2023-09-25T20:33:20.729Z,15.95
2023-09-25T20:35:48.549Z,13.95
2023-09-25T20:38:16.403Z,15.75
2023-09-25T20:40:44.274Z,16.85
2023-09-25T20:43:12.127Z,15.57
2023-09-25T20:45:40.881Z,18.02
2023-09-25T20:48:10.705Z,13.38
2023-09-25T20:50:38.525Z,18.02
2023-09-25T20:53:06.373Z,18.75
2023-09-25T20:55:34.229Z,19.17
2023-09-25T20:58:04.293Z,19.48
2023-09-25T21:00:32.464Z,25.17
2023-09-25T21:03:00.391Z,18.88
2023-09-25T21:05:29.672Z,20.95
2023-09-25T21:07:57.505Z,19.33
2023-09-25T21:10:25.278Z,20.60
2023-09-25T21:12:53.259Z,23.05
2023-09-25T21:15:21.367Z,20.45
2023-09-25T21:17:49.218Z,19.60
2023-09-25T21:20:17.147Z,20.55
2023-09-25T21:22:46.361Z,19.20
2023-09-25T21:25:14.283Z,18.15
2023-09-25T21:27:42.060Z,15.38
2023-09-25T21:30:10.392Z,18.08
2023-09-25T21:32:38.267Z,17.45
2023-09-25T21:35:06.608Z,16.75
2023-09-25T21:37:34.426Z,17.00
2023-09-25T21:40:04.447Z,16.88
2023-09-25T21:42:32.413Z,16.05
2023-09-25T21:45:00.234Z,20.10
2023-09-25T21:47:28.151Z,19.90
2023-09-25T21:49:55.986Z,18.23
2023-09-25T21:52:23.796Z,18.42
2023-09-25T21:54:54.645Z,19.58
2023-09-25T21:57:23.877Z,23.02
2023-09-25T21:59:51.723Z,23.38
2023-09-25T22:02:20.636Z,27.23
2023-09-25T22:04:49.936Z,24.70
2023-09-25T22:07:17.980Z,25.98
2023-09-25T22:09:45.843Z,24.80
2023-09-25T22:12:13.673Z,24.58
2023-09-25T22:14:42.842Z,26.30
2023-09-25T22:17:11.149Z,25.95
2023-09-25T22:19:39.545Z,23.45
2023-09-25T22:22:07.355Z,24.90
2023-09-25T22:24:35.498Z,24.77
2023-09-25T22:27:03.293Z,27.02
2023-09-25T22:29:31.191Z,26.92
2023-09-25T22:32:00.766Z,27.73
2023-09-25T22:34:28.696Z,27.15
2023-09-25T22:36:56.613Z,27.27
2023-09-25T22:39:24.784Z,28.40
2023-09-25T22:41:52.613Z,29.52
2023-09-25T22:44:20.392Z,32.85
2023-09-25T22:46:48.212Z,31.05
2023-09-25T22:49:17.623Z,30.60
2023-09-25T22:51:45.539Z,26.80
2023-09-25T22:54:13.319Z,32.63
2023-09-25T22:56:41.134Z,29.80
2023-09-25T22:59:08.922Z,27.08
2023-09-25T23:01:36.858Z,25.23
2023-09-25T23:04:04.940Z,29.08
2023-09-25T23:06:34.484Z,27.10
2023-09-25T23:09:04.669Z,25.15
2023-09-25T23:11:32.504Z,24.50
2023-09-25T23:14:00.292Z,28.15
2023-09-25T23:16:28.098Z,25.20
2023-09-25T23:18:56.053Z,24.35
2023-09-25T23:21:23.888Z,32.50
2023-09-25T23:23:53.006Z,33.97
2023-09-25T23:26:20.926Z,34.67
2023-09-25T23:28:48.693Z,33.90
2023-09-25T23:31:16.631Z,43.28
2023-09-25T23:33:44.491Z,32.55
2023-09-25T23:36:12.286Z,36.80
2023-09-25T23:38:40.095Z,40.10
2023-09-25T23:41:09.789Z,34.92
2023-09-25T23:43:37.571Z,39.17
2023-09-25T23:46:05.469Z,38.90
2023-09-25T23:48:34.114Z,39.50
2023-09-25T23:51:01.985Z,34.92
2023-09-25T23:53:30.282Z,38.63
2023-09-25T23:56:02.963Z,38.13
2023-09-25T23:58:32.089Z,35.95
